Stillwater, OK (74075)

16:12 CST le 23 novembre 2014 (GMT -0600)
Stillwater, East Side | Change Station
CLOSE
Current Station
Stations météorologiques personnelles
Location: Stillwater, OK
Altitude: 935 ft
Stations météo à proximité
Avis météorologiques actifs: Wind Advisory Préavis actif: Record Report

Alt. 935 ft 36.12 °N, 97.04 °W | Updated 4 seconds ago

Overcast
Couvert
52.4 ° F
Paraît 52.4 ° F
N
14.0
Vent Variable Vent de NO
Gusts 18.4 mph

Aujourd'hui
Haut(e) -- | Bas -- ° F
--% Risque de précip.
Hier
Haut(e) -- | Bas -- ° F
Precip. -- pouce
7:13 AM 5:16 PM
Nouvelle lune, 2% visible
Pression 29.38 pouce
Visibilité 10.0 Miles terrestres
Nuages Peu 2900 ft
Nuageux 5000 ft
Couvert 7000 ft
Point de rosée 44 ° F
Humidité 73%
Précipitations 0.00 pouce
Profondeur de la couche neigeuse Non disponible.
UV 0.0 sur 12
Pollen 3.70 sur 12
Qualité de l'air Non disponible.
Flu Activity Non disponible.
METAR KSWO 232153Z 34022G31KT 10SM FEW029 BKN050 OVC070 12/06 A2940 RMK AO2 PK WND 32032/2137 PRESRR SLP949 T01170056

More Conditions Fewer Conditions

Pression 29.38 pouce
Visibilité 10.0 Miles terrestres
Nuages Peu 2900 ft
Nuageux 5000 ft
Couvert 7000 ft
Point de rosée 44 ° F
Humidité 73%
Précipitations 0.00 pouce
Profondeur de la couche neigeuse Non disponible.
UV 0.0 sur 12
Pollen 3.70 sur 12
Qualité de l'air Non disponible.
Flu Activity Non disponible.
METAR KSWO 232153Z 34022G31KT 10SM FEW029 BKN050 OVC070 12/06 A2940 RMK AO2 PK WND 32032/2137 PRESRR SLP949 T01170056

More Conditions Fewer Conditions

10-Day Weather Forecast

Almanac

Astronomie

Nov. 23, 2014 Lever Coucher
Temps réel
Crépuscule civil
Crépuscule nautique
Crépuscule astronomique
Lune
Durée de lumière visible
Longueur du jour
Tomorrow will be .
, % of the Moon is Illuminated

Extrêmes aujourd'hui

State Highs State Lows

Community

WunderPhotos

Upload Photos

1,773,183 Photos téléchargées !

WunderBlogs® & News

Nearby

Qualité de l'air

  Qualité de l'air Indice de la qualité de l'air Polluant
Not available.

Épaisseur de neige

Station Depth Altitude

Activité sismique

Ville Distance Mag. Time & Date
Minimum magnitude displayed is 2.5.

Températures des eaux côtières

Lieu Température

Stations météo à proximité